Time;durP1;ratioP1;P1;durP2;ratioP2;P2;SDS_P1;SDS_P2;PMS_P1;PMS_P2;Temp;Humidity;BMP_temperature;BMP_pressure;BME280_temperature;BME280_humidity;BME280_pressure;Samples;Min_cycle;Max_cycle;Signal;HPM_P1;HPM_P2
2022/11/25 00:02:24;;;;;;;14.40;5.00;;;;;;;;;;5033242;28;20179;-65
2022/11/25 00:04:49;;;;;;;16.33;4.67;;;;;;;;;;5031364;28;20724;-65
2022/11/25 00:07:14;;;;;;;16.17;4.70;;;;;;;;;;5017114;28;20192;-65
2022/11/25 00:09:39;;;;;;;13.30;4.90;;;;;;;;;;5033986;28;20276;-65
2022/11/25 00:12:05;;;;;;;13.57;4.83;;;;;;;;;;5031148;28;20184;-65
2022/11/25 00:14:30;;;;;;;15.90;3.83;;;;;;;;;;5035564;28;20172;-67
2022/11/25 00:16:55;;;;;;;13.90;4.53;;;;;;;;;;5031788;28;20259;-66
2022/11/25 00:19:20;;;;;;;10.73;4.13;;;;;;;;;;5032654;28;20196;-65
2022/11/25 00:21:46;;;;;;;11.17;4.77;;;;;;;;;;5034488;28;20678;-65
2022/11/25 00:24:13;;;;;;;14.43;4.40;;;;;;;;;;5034689;28;20264;-65
2022/11/25 00:26:38;;;;;;;16.47;6.17;;;;;;;;;;5031405;28;20191;-64
2022/11/25 00:29:05;;;;;;;16.27;4.57;;;;;;;;;;5029207;28;20466;-66
2022/11/25 00:31:31;;;;;;;15.43;4.77;;;;;;;;;;5032222;28;20561;-65
2022/11/25 00:33:57;;;;;;;14.23;4.10;;;;;;;;;;5012155;28;20941;-65
2022/11/25 00:36:26;;;;;;;14.97;4.20;;;;;;;;;;5033938;28;20412;-65
2022/11/25 00:38:56;;;;;;;10.60;4.70;;;;;;;;;;5029281;28;20196;-65
2022/11/25 00:46:51;;;;;;;11.87;4.07;;;;;;;;;;5030234;28;20438;-66
2022/11/25 00:49:17;;;;;;;12.80;4.10;;;;;;;;;;5031283;28;20430;-65
2022/11/25 00:51:42;;;;;;;10.30;4.90;;;;;;;;;;5031430;28;20173;-65
2022/11/25 00:54:07;;;;;;;12.93;4.10;;;;;;;;;;5029513;28;20179;-65
2022/11/25 00:56:32;;;;;;;13.77;4.13;;;;;;;;;;5027043;28;20307;-65
2022/11/25 00:58:58;;;;;;;14.80;4.77;;;;;;;;;;5030169;28;20203;-65
2022/11/25 01:01:23;;;;;;;15.53;4.47;;;;;;;;;;5014028;28;20565;-66
2022/11/25 01:03:49;;;;;;;11.03;4.40;;;;;;;;;;5029435;28;20560;-66
2022/11/25 01:06:15;;;;;;;14.83;4.70;;;;;;;;;;5032701;28;20183;-64
2022/11/25 01:08:40;;;;;;;10.83;3.80;;;;;;;;;;5011259;28;20265;-65
2022/11/25 01:11:06;;;;;;;15.97;4.57;;;;;;;;;;5029846;28;21183;-65
2022/11/25 01:13:32;;;;;;;13.00;4.87;;;;;;;;;;5031344;28;20199;-65
2022/11/25 01:16:04;;;;;;;16.03;4.20;;;;;;;;;;5001298;28;20831;-65
2022/11/25 01:18:30;;;;;;;12.63;4.33;;;;;;;;;;5029843;28;20201;-65
2022/11/25 01:21:04;;;;;;;14.60;5.33;;;;;;;;;;5030503;28;20414;-65
2022/11/25 01:23:29;;;;;;;12.70;4.50;;;;;;;;;;5030927;28;20178;-65
2022/11/25 01:25:54;;;;;;;14.70;4.67;;;;;;;;;;5032110;28;20411;-65
2022/11/25 01:28:19;;;;;;;11.70;3.90;;;;;;;;;;5015353;28;20207;-65
2022/11/25 01:30:45;;;;;;;11.73;3.97;;;;;;;;;;5034380;28;20178;-65
2022/11/25 01:33:10;;;;;;;12.10;4.50;;;;;;;;;;5032929;28;20231;-65
2022/11/25 01:35:37;;;;;;;12.33;4.03;;;;;;;;;;5036136;28;20180;-65
2022/11/25 01:38:03;;;;;;;13.50;4.53;;;;;;;;;;5034371;28;20176;-64
2022/11/25 01:40:28;;;;;;;9.37;3.47;;;;;;;;;;5035576;28;20869;-64
2022/11/25 01:42:53;;;;;;;16.53;4.50;;;;;;;;;;5032768;28;20180;-65
2022/11/25 01:45:19;;;;;;;15.67;3.70;;;;;;;;;;5022521;28;20278;-65
2022/11/25 01:47:44;;;;;;;11.37;3.80;;;;;;;;;;5035654;28;20227;-65
2022/11/25 01:50:10;;;;;;;11.43;4.00;;;;;;;;;;5040749;28;20232;-64
2022/11/25 01:52:38;;;;;;;19.57;4.13;;;;;;;;;;5019350;28;20176;-65
2022/11/25 01:55:23;;;;;;;9.60;3.37;;;;;;;;;;5038948;28;20407;-65
2022/11/25 01:57:50;;;;;;;10.77;4.27;;;;;;;;;;5039428;28;20486;-65
2022/11/25 02:00:16;;;;;;;11.93;4.27;;;;;;;;;;5022231;28;20815;-63
2022/11/25 02:02:41;;;;;;;11.77;3.60;;;;;;;;;;5037479;28;20411;-65
2022/11/25 02:05:11;;;;;;;12.40;4.40;;;;;;;;;;5042273;28;20597;-65
2022/11/25 02:07:39;;;;;;;10.13;3.70;;;;;;;;;;5040715;28;20199;-65
2022/11/25 02:10:07;;;;;;;11.03;4.07;;;;;;;;;;5039048;28;20528;-65
2022/11/25 02:12:34;;;;;;;9.73;3.47;;;;;;;;;;5037446;28;20480;-65
2022/11/25 02:14:59;;;;;;;15.60;3.83;;;;;;;;;;5033087;28;20415;-65
2022/11/25 02:17:25;;;;;;;11.10;3.70;;;;;;;;;;5039171;28;20418;-65
2022/11/25 02:19:55;;;;;;;11.20;3.60;;;;;;;;;;5019068;28;20314;-66
2022/11/25 02:22:24;;;;;;;11.40;3.97;;;;;;;;;;5023947;28;20202;-65
2022/11/25 02:24:51;;;;;;;6.93;3.07;;;;;;;;;;5040491;28;20420;-65
2022/11/25 02:27:19;;;;;;;13.03;3.60;;;;;;;;;;5035320;28;20451;-64
2022/11/25 02:29:48;;;;;;;8.97;3.47;;;;;;;;;;5038764;28;20462;-65
2022/11/25 02:32:13;;;;;;;10.60;3.47;;;;;;;;;;5036758;28;20494;-65
2022/11/25 02:34:46;;;;;;;10.20;3.33;;;;;;;;;;5021427;28;20557;-65
2022/11/25 02:37:12;;;;;;;13.17;3.80;;;;;;;;;;5019327;28;20165;-65
2022/11/25 02:39:37;;;;;;;21.30;4.13;;;;;;;;;;5037064;28;20450;-65
2022/11/25 02:42:02;;;;;;;11.83;3.63;;;;;;;;;;5016985;28;20188;-65
2022/11/25 02:44:28;;;;;;;8.60;3.00;;;;;;;;;;5036512;28;20183;-65
2022/11/25 02:46:53;;;;;;;10.53;3.13;;;;;;;;;;5036377;28;20173;-65
2022/11/25 02:49:18;;;;;;;10.13;3.30;;;;;;;;;;5035886;28;20846;-65
2022/11/25 02:51:44;;;;;;;14.50;4.13;;;;;;;;;;5033565;28;20192;-65
2022/11/25 02:54:10;;;;;;;8.63;3.40;;;;;;;;;;5036467;28;20267;-66
2022/11/25 02:56:39;;;;;;;14.83;3.33;;;;;;;;;;5035128;28;20888;-66
2022/11/25 02:59:05;;;;;;;11.73;3.87;;;;;;;;;;5020886;28;20438;-65
2022/11/25 03:01:30;;;;;;;14.73;5.37;;;;;;;;;;5036503;28;20426;-65
2022/11/25 03:03:56;;;;;;;10.33;4.50;;;;;;;;;;5035802;28;20493;-65
2022/11/25 03:06:21;;;;;;;8.60;3.20;;;;;;;;;;5015271;28;20229;-65
2022/11/25 03:08:46;;;;;;;10.67;2.97;;;;;;;;;;5031964;28;20672;-64
2022/11/25 03:11:12;;;;;;;15.50;4.20;;;;;;;;;;5018468;28;21017;-65
2022/11/25 03:13:37;;;;;;;11.00;3.33;;;;;;;;;;5037446;28;20207;-65
2022/11/25 03:16:02;;;;;;;14.10;3.63;;;;;;;;;;5035369;28;20233;-65
2022/11/25 03:18:28;;;;;;;11.70;3.30;;;;;;;;;;5038486;28;20228;-65
2022/11/25 03:20:53;;;;;;;10.10;3.57;;;;;;;;;;5038124;28;20179;-66
2022/11/25 03:23:19;;;;;;;10.37;3.03;;;;;;;;;;5037413;28;20659;-65
2022/11/25 03:25:44;;;;;;;8.73;3.30;;;;;;;;;;5017522;28;20450;-65
2022/11/25 03:28:09;;;;;;;14.23;5.07;;;;;;;;;;5037563;28;20293;-64
2022/11/25 03:30:35;;;;;;;9.00;3.40;;;;;;;;;;5037593;28;20183;-65
2022/11/25 03:33:00;;;;;;;7.70;3.00;;;;;;;;;;5019085;28;20203;-65
2022/11/25 03:35:25;;;;;;;14.47;3.27;;;;;;;;;;5019903;28;20180;-65
2022/11/25 03:37:50;;;;;;;11.60;3.47;;;;;;;;;;5017666;28;20816;-64
2022/11/25 03:40:16;;;;;;;9.00;3.70;;;;;;;;;;5035588;28;20184;-65
2022/11/25 03:42:41;;;;;;;13.90;4.03;;;;;;;;;;5037496;28;20200;-65
2022/11/25 03:45:07;;;;;;;9.60;3.60;;;;;;;;;;5038701;28;20184;-65
2022/11/25 03:47:32;;;;;;;10.67;2.90;;;;;;;;;;5037044;28;20619;-65
2022/11/25 03:49:58;;;;;;;12.77;2.90;;;;;;;;;;5039083;28;20261;-65
2022/11/25 03:52:23;;;;;;;13.60;3.70;;;;;;;;;;5019723;28;20199;-65
2022/11/25 03:54:49;;;;;;;10.27;3.50;;;;;;;;;;5021578;28;20179;-66
2022/11/25 03:57:14;;;;;;;13.70;4.10;;;;;;;;;;5036617;28;20643;-65
2022/11/25 03:59:39;;;;;;;15.10;3.80;;;;;;;;;;5035452;28;20270;-65
2022/11/25 04:02:05;;;;;;;10.17;2.77;;;;;;;;;;5019948;28;20655;-64
2022/11/25 04:04:30;;;;;;;10.23;2.97;;;;;;;;;;5036711;28;20175;-66
2022/11/25 04:06:55;;;;;;;13.80;3.73;;;;;;;;;;5033006;28;20184;-64
2022/11/25 04:09:21;;;;;;;12.97;3.43;;;;;;;;;;5033484;28;20220;-65
2022/11/25 04:14:30;;;;;;;16.20;3.50;;;;;;;;;;5034144;28;20658;-65
2022/11/25 04:16:56;;;;;;;10.17;3.20;;;;;;;;;;5036882;28;20443;-64
2022/11/25 04:19:21;;;;;;;10.77;2.97;;;;;;;;;;5033462;28;20208;-65
2022/11/25 04:21:46;;;;;;;15.30;4.77;;;;;;;;;;5035654;28;20221;-65
2022/11/25 04:24:12;;;;;;;12.40;3.63;;;;;;;;;;5031892;28;20255;-65
2022/11/25 04:26:37;;;;;;;12.03;3.80;;;;;;;;;;5013055;28;20207;-66
2022/11/25 04:29:02;;;;;;;10.50;3.40;;;;;;;;;;5035391;28;20274;-65
2022/11/25 04:31:28;;;;;;;13.53;3.80;;;;;;;;;;5035129;28;20571;-65
2022/11/25 04:33:53;;;;;;;18.00;3.83;;;;;;;;;;5036877;28;20199;-65
2022/11/25 04:36:19;;;;;;;14.47;4.23;;;;;;;;;;5018956;28;20644;-65
2022/11/25 04:38:44;;;;;;;9.23;3.80;;;;;;;;;;5035040;28;20793;-65
2022/11/25 04:41:09;;;;;;;17.80;4.50;;;;;;;;;;5034713;28;20188;-65
2022/11/25 04:43:34;;;;;;;12.30;3.70;;;;;;;;;;5035438;28;20185;-65
2022/11/25 04:46:00;;;;;;;13.47;3.60;;;;;;;;;;5036562;28;20180;-65
2022/11/25 04:48:25;;;;;;;15.00;4.10;;;;;;;;;;5030308;28;20212;-65
2022/11/25 04:50:50;;;;;;;14.33;4.70;;;;;;;;;;5034747;28;21092;-64
2022/11/25 04:53:16;;;;;;;12.63;4.17;;;;;;;;;;5034572;28;20171;-65
2022/11/25 04:55:41;;;;;;;15.97;4.50;;;;;;;;;;5014917;28;20188;-65
2022/11/25 04:58:07;;;;;;;12.47;4.10;;;;;;;;;;5033294;28;20217;-65
2022/11/25 05:00:33;;;;;;;12.40;3.70;;;;;;;;;;5036939;28;20271;-65
2022/11/25 05:02:58;;;;;;;15.97;4.50;;;;;;;;;;5037228;28;20498;-65
2022/11/25 05:05:23;;;;;;;9.80;3.37;;;;;;;;;;5036753;28;20590;-65
2022/11/25 05:07:48;;;;;;;13.60;3.93;;;;;;;;;;5034865;28;20199;-65
2022/11/25 05:10:14;;;;;;;9.03;3.23;;;;;;;;;;5038803;28;20173;-65
2022/11/25 05:15:07;;;;;;;10.60;4.10;;;;;;;;;;4995898;28;20766;-66
2022/11/25 05:17:33;;;;;;;16.27;3.80;;;;;;;;;;5003317;28;20417;-66
2022/11/25 05:19:58;;;;;;;18.80;4.73;;;;;;;;;;5005477;28;20185;-66
2022/11/25 05:22:25;;;;;;;10.77;4.00;;;;;;;;;;5004356;28;20178;-66
2022/11/25 05:24:50;;;;;;;11.63;4.00;;;;;;;;;;5005694;28;20205;-66
2022/11/25 05:27:16;;;;;;;15.00;4.13;;;;;;;;;;5004046;28;20794;-66
2022/11/25 05:29:42;;;;;;;21.37;4.40;;;;;;;;;;4999311;28;20771;-66
2022/11/25 05:32:07;;;;;;;14.13;4.50;;;;;;;;;;5004335;28;20857;-66
2022/11/25 05:34:33;;;;;;;10.97;4.17;;;;;;;;;;5003978;28;20200;-67
2022/11/25 05:36:58;;;;;;;10.70;3.80;;;;;;;;;;5002955;28;20174;-66
2022/11/25 05:39:23;;;;;;;15.43;4.40;;;;;;;;;;4999567;28;20663;-67
2022/11/25 05:41:49;;;;;;;12.23;3.90;;;;;;;;;;4998158;28;20209;-66
2022/11/25 05:44:14;;;;;;;12.87;3.90;;;;;;;;;;4998328;28;20735;-67
2022/11/25 05:46:40;;;;;;;12.63;4.23;;;;;;;;;;5003451;28;20169;-66
2022/11/25 05:49:05;;;;;;;16.30;4.50;;;;;;;;;;5003410;28;20212;-66
2022/11/25 05:51:30;;;;;;;10.40;3.60;;;;;;;;;;5000451;28;20183;-66
2022/11/25 05:53:56;;;;;;;16.47;4.13;;;;;;;;;;5003752;28;20194;-67
2022/11/25 05:56:21;;;;;;;13.00;3.60;;;;;;;;;;5004718;28;20192;-64
2022/11/25 05:58:46;;;;;;;13.40;3.73;;;;;;;;;;5001492;28;20185;-64
2022/11/25 06:01:13;;;;;;;12.10;3.73;;;;;;;;;;5003304;28;20272;-64
2022/11/25 06:03:39;;;;;;;14.57;4.80;;;;;;;;;;5002111;28;20197;-64
2022/11/25 06:06:04;;;;;;;13.90;3.93;;;;;;;;;;5004447;28;20827;-64
2022/11/25 06:08:29;;;;;;;10.20;3.57;;;;;;;;;;5000721;28;20201;-64
2022/11/25 06:10:55;;;;;;;13.77;4.00;;;;;;;;;;5002164;28;20170;-64
2022/11/25 06:13:20;;;;;;;11.90;3.67;;;;;;;;;;5013142;28;20556;-64
2022/11/25 06:15:46;;;;;;;15.13;4.27;;;;;;;;;;5039460;28;20772;-66
2022/11/25 06:18:12;;;;;;;13.77;4.30;;;;;;;;;;5038588;28;20579;-65
2022/11/25 06:20:37;;;;;;;15.50;4.83;;;;;;;;;;5024172;28;20186;-65
2022/11/25 06:23:03;;;;;;;10.90;3.90;;;;;;;;;;5038327;28;20877;-65
2022/11/25 06:25:29;;;;;;;12.23;4.77;;;;;;;;;;5038532;28;20176;-65
2022/11/25 06:27:54;;;;;;;13.03;4.00;;;;;;;;;;5038949;28;20203;-65
2022/11/25 06:30:19;;;;;;;11.60;4.30;;;;;;;;;;5038884;28;20179;-65
2022/11/25 06:32:45;;;;;;;11.47;3.90;;;;;;;;;;5023742;28;20207;-65
2022/11/25 06:35:10;;;;;;;12.93;4.10;;;;;;;;;;5039865;28;20164;-65
2022/11/25 06:37:35;;;;;;;10.40;4.20;;;;;;;;;;5038243;28;20636;-65
2022/11/25 06:40:00;;;;;;;13.77;4.17;;;;;;;;;;5038715;28;20259;-65
2022/11/25 06:42:26;;;;;;;16.03;5.53;;;;;;;;;;5038145;28;20275;-65
2022/11/25 06:44:51;;;;;;;13.93;4.67;;;;;;;;;;5023667;28;20220;-65
2022/11/25 06:47:17;;;;;;;14.23;4.70;;;;;;;;;;5038477;28;20242;-65
2022/11/25 06:49:42;;;;;;;15.67;4.70;;;;;;;;;;5037952;28;20168;-65
2022/11/25 06:52:07;;;;;;;12.93;5.10;;;;;;;;;;5038607;28;20177;-65
2022/11/25 06:54:32;;;;;;;17.03;4.37;;;;;;;;;;5037750;28;20279;-65
2022/11/25 06:56:58;;;;;;;19.73;4.63;;;;;;;;;;5038241;28;20173;-65
2022/11/25 06:59:23;;;;;;;15.10;4.70;;;;;;;;;;5036727;28;20198;-66
2022/11/25 07:01:48;;;;;;;14.53;5.40;;;;;;;;;;5037270;28;20176;-65
2022/11/25 07:04:14;;;;;;;18.10;5.50;;;;;;;;;;5039204;28;20724;-65
2022/11/25 07:06:39;;;;;;;14.70;5.50;;;;;;;;;;5038153;28;20179;-65
2022/11/25 07:09:04;;;;;;;14.13;5.20;;;;;;;;;;5037765;28;20283;-65
2022/11/25 07:11:31;;;;;;;15.87;5.00;;;;;;;;;;5037773;28;20190;-66
2022/11/25 07:13:58;;;;;;;24.60;5.80;;;;;;;;;;5037553;28;20215;-66
2022/11/25 07:16:23;;;;;;;17.30;5.03;;;;;;;;;;5023031;28;20407;-66
2022/11/25 07:18:49;;;;;;;15.10;5.60;;;;;;;;;;5036186;28;20417;-66
2022/11/25 07:21:16;;;;;;;16.90;5.40;;;;;;;;;;5037358;28;20203;-66
2022/11/25 07:23:42;;;;;;;20.07;6.17;;;;;;;;;;5036253;28;20238;-66
2022/11/25 07:26:10;;;;;;;16.57;6.53;;;;;;;;;;5034439;28;20423;-66
2022/11/25 07:28:35;;;;;;;15.33;5.60;;;;;;;;;;5036458;28;20504;-66
2022/11/25 07:31:04;;;;;;;17.93;5.90;;;;;;;;;;5020179;28;20419;-66
2022/11/25 07:33:29;;;;;;;17.53;5.73;;;;;;;;;;5035846;28;20573;-66
2022/11/25 07:35:54;;;;;;;14.27;5.90;;;;;;;;;;5038572;28;20421;-66
2022/11/25 07:38:20;;;;;;;11.40;5.13;;;;;;;;;;5036267;28;20668;-66
2022/11/25 07:40:45;;;;;;;11.30;5.80;;;;;;;;;;5038726;28;20283;-66
2022/11/25 07:43:10;;;;;;;19.63;6.00;;;;;;;;;;5038184;28;20214;-66
2022/11/25 07:45:35;;;;;;;12.50;5.30;;;;;;;;;;5037065;28;20177;-66
2022/11/25 07:48:01;;;;;;;14.13;5.43;;;;;;;;;;5035605;28;20287;-66
2022/11/25 07:50:27;;;;;;;14.33;6.20;;;;;;;;;;5037189;28;20172;-66
2022/11/25 07:52:52;;;;;;;12.97;5.63;;;;;;;;;;5036435;28;20458;-66
2022/11/25 07:55:18;;;;;;;14.90;6.40;;;;;;;;;;5037274;28;20169;-66
2022/11/25 07:57:43;;;;;;;19.00;6.00;;;;;;;;;;5037407;28;20194;-66
2022/11/25 08:00:08;;;;;;;17.93;5.60;;;;;;;;;;5037279;28;20246;-66
2022/11/25 08:02:34;;;;;;;11.67;5.70;;;;;;;;;;5035865;28;20177;-66
2022/11/25 08:04:59;;;;;;;14.83;5.87;;;;;;;;;;5035952;28;20176;-66
2022/11/25 08:07:24;;;;;;;15.20;5.87;;;;;;;;;;5026961;28;20270;-66
2022/11/25 08:09:50;;;;;;;17.50;6.37;;;;;;;;;;5034957;28;20172;-66
2022/11/25 08:12:16;;;;;;;18.03;6.03;;;;;;;;;;5037200;28;20200;-66
2022/11/25 08:14:42;;;;;;;11.30;5.67;;;;;;;;;;5036621;28;20447;-66
2022/11/25 08:17:07;;;;;;;16.30;5.80;;;;;;;;;;5036069;28;20621;-66
2022/11/25 08:19:32;;;;;;;16.87;6.63;;;;;;;;;;5033198;28;20187;-66
2022/11/25 08:21:58;;;;;;;15.00;6.13;;;;;;;;;;5037552;28;20626;-66
2022/11/25 08:24:23;;;;;;;17.93;6.77;;;;;;;;;;5020563;28;20677;-66
2022/11/25 08:26:48;;;;;;;17.93;6.03;;;;;;;;;;5036992;28;20194;-66
2022/11/25 08:29:15;;;;;;;13.07;6.03;;;;;;;;;;5035841;28;20719;-66
2022/11/25 08:31:41;;;;;;;14.10;5.80;;;;;;;;;;5036259;28;20205;-66
2022/11/25 08:34:06;;;;;;;21.00;7.20;;;;;;;;;;5017246;28;21037;-66
2022/11/25 08:36:32;;;;;;;13.67;6.07;;;;;;;;;;5019502;28;20502;-66
2022/11/25 08:38:59;;;;;;;14.70;6.63;;;;;;;;;;5036403;28;20655;-66
2022/11/25 08:41:25;;;;;;;12.67;6.07;;;;;;;;;;5021711;28;20724;-66
2022/11/25 08:43:51;;;;;;;15.43;6.47;;;;;;;;;;5035289;28;20481;-66
2022/11/25 08:46:18;;;;;;;12.23;6.17;;;;;;;;;;5034752;28;20422;-66
2022/11/25 08:48:44;;;;;;;17.30;5.93;;;;;;;;;;5034503;28;20219;-66
2022/11/25 08:51:14;;;;;;;14.47;6.03;;;;;;;;;;5036451;28;20415;-66
2022/11/25 08:53:40;;;;;;;13.73;5.90;;;;;;;;;;5037413;28;20199;-66
2022/11/25 08:56:06;;;;;;;15.83;6.27;;;;;;;;;;5019234;28;20916;-65
2022/11/25 08:58:31;;;;;;;11.40;5.70;;;;;;;;;;5035958;28;20179;-66
2022/11/25 09:00:56;;;;;;;14.17;6.33;;;;;;;;;;5034786;28;20525;-66
2022/11/25 09:03:22;;;;;;;12.90;5.27;;;;;;;;;;5034919;28;20682;-66
2022/11/25 09:05:48;;;;;;;12.73;6.03;;;;;;;;;;5034727;28;20302;-66
2022/11/25 09:08:13;;;;;;;12.23;5.60;;;;;;;;;;5020281;28;20196;-66
2022/11/25 09:10:39;;;;;;;14.70;5.93;;;;;;;;;;5035601;28;20443;-66
2022/11/25 09:13:04;;;;;;;15.20;5.23;;;;;;;;;;5034356;28;20261;-66
2022/11/25 09:15:30;;;;;;;12.90;5.40;;;;;;;;;;5036003;28;20548;-66
2022/11/25 09:17:59;;;;;;;16.50;5.43;;;;;;;;;;5035952;28;20338;-66
2022/11/25 09:20:24;;;;;;;16.23;6.33;;;;;;;;;;5036267;28;20180;-66
2022/11/25 09:22:49;;;;;;;13.20;5.43;;;;;;;;;;5035211;28;20948;-66
2022/11/25 09:25:15;;;;;;;13.50;5.67;;;;;;;;;;5035495;28;20181;-66
2022/11/25 09:27:40;;;;;;;11.53;5.90;;;;;;;;;;5034329;28;20243;-66
2022/11/25 09:30:06;;;;;;;8.60;5.53;;;;;;;;;;5036079;28;20180;-66
2022/11/25 09:32:32;;;;;;;17.60;5.23;;;;;;;;;;5034360;28;20662;-66
2022/11/25 09:34:57;;;;;;;11.57;5.50;;;;;;;;;;5035923;28;20468;-66
2022/11/25 09:37:22;;;;;;;13.40;5.30;;;;;;;;;;5021431;28;20311;-66
2022/11/25 09:39:49;;;;;;;10.40;5.03;;;;;;;;;;5035443;28;20179;-66
2022/11/25 09:48:01;;;;;;;12.13;5.43;;;;;;;;;;5037808;28;20481;-66
2022/11/25 09:50:39;;;;;;;13.97;5.67;;;;;;;;;;5037880;28;20421;-66
2022/11/25 09:53:16;;;;;;;11.00;5.40;;;;;;;;;;5039176;28;20508;-66
2022/11/25 09:55:44;;;;;;;13.83;4.50;;;;;;;;;;5038519;28;20899;-66
2022/11/25 09:58:24;;;;;;;13.03;4.73;;;;;;;;;;5033425;28;20520;-66
2022/11/25 10:00:50;;;;;;;12.60;5.20;;;;;;;;;;5038164;28;20423;-66
2022/11/25 10:03:45;;;;;;;20.60;5.60;;;;;;;;;;5039824;28;21417;-66
2022/11/25 10:06:10;;;;;;;14.20;5.90;;;;;;;;;;5019312;28;20689;-66
2022/11/25 10:08:40;;;;;;;15.23;6.33;;;;;;;;;;5037150;28;20458;-66
2022/11/25 10:11:20;;;;;;;13.10;4.93;;;;;;;;;;5036572;28;20200;-66
2022/11/25 10:14:04;;;;;;;9.33;5.17;;;;;;;;;;5036838;28;20960;-66
2022/11/25 10:16:34;;;;;;;10.93;4.40;;;;;;;;;;5037362;28;20791;-66
2022/11/25 10:19:04;;;;;;;9.63;5.63;;;;;;;;;;5035055;28;20924;-66
2022/11/25 10:21:30;;;;;;;12.30;5.50;;;;;;;;;;5038802;28;20437;-66
2022/11/25 10:23:55;;;;;;;11.97;5.33;;;;;;;;;;5036175;28;20873;-66
2022/11/25 10:26:26;;;;;;;9.20;4.37;;;;;;;;;;5037832;28;20177;-66
2022/11/25 10:28:57;;;;;;;14.90;5.60;;;;;;;;;;5036629;28;21170;-66
2022/11/25 10:31:29;;;;;;;12.90;5.50;;;;;;;;;;5037045;28;20404;-66
2022/11/25 10:33:57;;;;;;;9.87;5.37;;;;;;;;;;5036813;28;20796;-67
2022/11/25 10:36:25;;;;;;;11.40;5.30;;;;;;;;;;5037338;28;20408;-66
2022/11/25 10:39:01;;;;;;;13.90;5.40;;;;;;;;;;5037615;28;20425;-66
2022/11/25 10:41:29;;;;;;;20.47;6.63;;;;;;;;;;5038686;28;20406;-66
2022/11/25 10:43:55;;;;;;;12.43;5.23;;;;;;;;;;5036338;28;20995;-66
2022/11/25 10:46:29;;;;;;;15.17;5.23;;;;;;;;;;5036879;28;20415;-66
2022/11/25 10:49:13;;;;;;;9.50;5.20;;;;;;;;;;5038225;28;20255;-66
2022/11/25 10:51:42;;;;;;;11.60;4.93;;;;;;;;;;5040564;28;20402;-67
2022/11/25 10:54:12;;;;;;;10.27;5.03;;;;;;;;;;5038037;28;20435;-66
2022/11/25 10:56:47;;;;;;;15.33;4.60;;;;;;;;;;5038627;28;20422;-66
2022/11/25 10:59:20;;;;;;;10.17;4.80;;;;;;;;;;5038536;28;20419;-66
2022/11/25 11:01:45;;;;;;;10.63;4.67;;;;;;;;;;5040555;28;21170;-66
2022/11/25 11:04:13;;;;;;;9.20;4.87;;;;;;;;;;5040963;28;20434;-66
2022/11/25 11:06:40;;;;;;;16.37;5.53;;;;;;;;;;5039365;28;20172;-67
2022/11/25 11:09:26;;;;;;;13.33;4.50;;;;;;;;;;5040320;28;20454;-66
2022/11/25 11:11:51;;;;;;;8.70;4.77;;;;;;;;;;5038863;28;20464;-66
2022/11/25 11:14:18;;;;;;;14.23;4.90;;;;;;;;;;5039681;28;21260;-66
2022/11/25 11:16:51;;;;;;;17.67;4.87;;;;;;;;;;5048247;23;20243;-77
2022/11/25 11:19:26;;;;;;;11.03;4.83;;;;;;;;;;5021920;28;20855;-77
2022/11/25 11:21:52;;;;;;;11.10;4.40;;;;;;;;;;5024371;28;20415;-77
2022/11/25 11:24:40;;;;;;;13.43;4.80;;;;;;;;;;5006694;28;20424;-77
2022/11/25 11:27:08;;;;;;;15.47;4.43;;;;;;;;;;5024648;28;20208;-77
2022/11/25 11:29:34;;;;;;;12.97;4.10;;;;;;;;;;5023535;28;20466;-77
2022/11/25 11:32:04;;;;;;;10.00;4.00;;;;;;;;;;5025200;28;20466;-78
2022/11/25 11:34:35;;;;;;;9.70;4.10;;;;;;;;;;5025295;28;20241;-77
2022/11/25 11:37:36;;;;;;;9.70;3.63;;;;;;;;;;5025081;28;20432;-78
2022/11/25 11:40:12;;;;;;;13.23;4.63;;;;;;;;;;4925329;29;20428;-78
2022/11/25 11:42:50;;;;;;;6.87;2.90;;;;;;;;;;5010994;28;20447;-77
2022/11/25 11:45:15;;;;;;;9.33;3.60;;;;;;;;;;5023344;28;20432;-78
2022/11/25 11:47:52;;;;;;;8.13;3.27;;;;;;;;;;5024100;28;20476;-77
2022/11/25 11:50:44;;;;;;;10.10;3.57;;;;;;;;;;5024090;28;20181;-78
2022/11/25 11:53:29;;;;;;;9.60;3.40;;;;;;;;;;5017844;28;20419;-78
2022/11/25 11:55:54;;;;;;;8.83;3.30;;;;;;;;;;5022288;28;20418;-77
2022/11/25 11:58:38;;;;;;;8.43;3.30;;;;;;;;;;5005586;28;20438;-77
2022/11/25 12:01:21;;;;;;;10.33;3.17;;;;;;;;;;5022038;28;20185;-77
2022/11/25 12:03:56;;;;;;;9.33;3.33;;;;;;;;;;5021870;28;20439;-77
2022/11/25 12:06:22;;;;;;;6.70;3.53;;;;;;;;;;5004085;28;20778;-77
2022/11/25 12:08:51;;;;;;;12.70;3.47;;;;;;;;;;5018289;28;20459;-77
2022/11/25 12:11:19;;;;;;;13.33;3.90;;;;;;;;;;5022524;28;20487;-77
2022/11/25 12:13:51;;;;;;;11.70;3.77;;;;;;;;;;5020531;28;20416;-77
2022/11/25 12:16:26;;;;;;;11.40;4.00;;;;;;;;;;5023261;28;20419;-77
2022/11/25 12:19:14;;;;;;;12.80;5.10;;;;;;;;;;5020390;28;20991;-78
2022/11/25 12:21:39;;;;;;;7.70;3.53;;;;;;;;;;4994851;28;20503;-77
2022/11/25 12:24:20;;;;;;;8.23;3.30;;;;;;;;;;5023073;28;20503;-77
2022/11/25 12:26:52;;;;;;;20.20;3.27;;;;;;;;;;5020928;28;20197;-77
2022/11/25 12:29:37;;;;;;;9.20;3.23;;;;;;;;;;5020239;28;20543;-77
2022/11/25 12:32:20;;;;;;;9.60;3.27;;;;;;;;;;5022355;28;20486;-77
2022/11/25 12:35:11;;;;;;;11.63;3.37;;;;;;;;;;5023893;28;20412;-77
2022/11/25 12:37:55;;;;;;;9.43;2.93;;;;;;;;;;5014129;28;20446;-76
2022/11/25 12:40:28;;;;;;;10.97;3.33;;;;;;;;;;5025086;28;20434;-77
2022/11/25 12:42:59;;;;;;;6.93;2.80;;;;;;;;;;5025695;28;20430;-74
2022/11/25 12:45:24;;;;;;;10.90;3.30;;;;;;;;;;5026700;28;20407;-77
2022/11/25 12:47:51;;;;;;;12.70;3.20;;;;;;;;;;5024319;28;20470;-77
2022/11/25 12:50:20;;;;;;;9.97;3.00;;;;;;;;;;5025744;28;20176;-77
2022/11/25 12:53:01;;;;;;;12.93;2.90;;;;;;;;;;5007706;28;20989;-77
2022/11/25 12:55:27;;;;;;;12.60;3.20;;;;;;;;;;5024946;28;20838;-77
2022/11/25 12:58:11;;;;;;;8.97;2.80;;;;;;;;;;5023678;28;20439;-77
2022/11/25 13:01:02;;;;;;;12.67;3.20;;;;;;;;;;5023471;28;20422;-77
2022/11/25 13:03:30;;;;;;;10.93;3.40;;;;;;;;;;5012155;28;20419;-77
2022/11/25 13:05:58;;;;;;;9.27;2.67;;;;;;;;;;5024671;28;20791;-77
2022/11/25 13:08:42;;;;;;;13.60;3.30;;;;;;;;;;5023084;28;20470;-77
2022/11/25 13:11:26;;;;;;;16.90;3.20;;;;;;;;;;5020576;28;20811;-77
2022/11/25 13:13:59;;;;;;;10.73;2.80;;;;;;;;;;5022226;28;20880;-76
2022/11/25 13:16:26;;;;;;;10.70;3.03;;;;;;;;;;5023928;28;20418;-77
2022/11/25 13:18:51;;;;;;;11.23;3.40;;;;;;;;;;5023851;28;20426;-76
2022/11/25 13:21:18;;;;;;;13.80;2.93;;;;;;;;;;5027585;28;20841;-77
2022/11/25 13:23:55;;;;;;;15.70;3.80;;;;;;;;;;5027508;28;20282;-77
2022/11/25 13:26:32;;;;;;;10.33;2.97;;;;;;;;;;5026207;28;20579;-77
2022/11/25 13:28:58;;;;;;;8.23;2.50;;;;;;;;;;5007680;28;20495;-77
2022/11/25 13:31:28;;;;;;;14.00;3.30;;;;;;;;;;5026019;28;21032;-77
2022/11/25 13:33:57;;;;;;;10.27;2.97;;;;;;;;;;5025279;28;20501;-77
2022/11/25 13:36:24;;;;;;;10.40;2.43;;;;;;;;;;5025969;28;20472;-77
2022/11/25 13:38:49;;;;;;;10.80;3.07;;;;;;;;;;5023840;28;20427;-77
2022/11/25 13:41:14;;;;;;;13.50;3.10;;;;;;;;;;5024618;28;20416;-77
2022/11/25 13:44:06;;;;;;;12.87;2.53;;;;;;;;;;5024275;28;20531;-77
2022/11/25 13:46:34;;;;;;;12.53;3.13;;;;;;;;;;5020547;28;20279;-77
2022/11/25 13:49:00;;;;;;;12.87;3.00;;;;;;;;;;5008240;28;20466;-76
2022/11/25 13:51:25;;;;;;;12.30;2.40;;;;;;;;;;5025329;28;20414;-77
2022/11/25 13:54:03;;;;;;;8.93;2.90;;;;;;;;;;5025325;28;20642;-77
2022/11/25 13:56:30;;;;;;;6.13;2.53;;;;;;;;;;5025487;28;20278;-77
2022/11/25 13:59:10;;;;;;;15.07;3.73;;;;;;;;;;5024018;28;20444;-77
2022/11/25 14:01:36;;;;;;;13.03;2.23;;;;;;;;;;5009313;28;20426;-77
2022/11/25 14:04:06;;;;;;;12.20;3.20;;;;;;;;;;5024428;28;20443;-77
2022/11/25 14:06:37;;;;;;;13.53;2.70;;;;;;;;;;5024448;28;20427;-76
2022/11/25 14:09:09;;;;;;;9.97;2.43;;;;;;;;;;5023189;28;20459;-77
2022/11/25 14:11:57;;;;;;;13.17;3.10;;;;;;;;;;5024496;28;20491;-77
2022/11/25 14:14:43;;;;;;;11.13;2.90;;;;;;;;;;5024190;28;20687;-77
2022/11/25 14:17:27;;;;;;;19.53;3.30;;;;;;;;;;5006090;28;20877;-77
2022/11/25 14:19:58;;;;;;;11.63;2.87;;;;;;;;;;5020438;28;20434;-77
2022/11/25 14:22:23;;;;;;;13.53;3.40;;;;;;;;;;5021704;28;20426;-77
2022/11/25 14:24:50;;;;;;;13.20;3.43;;;;;;;;;;5020587;28;20506;-77
2022/11/25 14:27:18;;;;;;;19.47;3.10;;;;;;;;;;5018435;28;20284;-76
2022/11/25 14:29:51;;;;;;;9.30;2.63;;;;;;;;;;5019958;28;20996;-77
2022/11/25 14:32:16;;;;;;;13.73;2.83;;;;;;;;;;5021945;28;20434;-77
2022/11/25 14:34:44;;;;;;;10.90;3.20;;;;;;;;;;5021651;28;20771;-76
2022/11/25 14:37:15;;;;;;;15.30;3.30;;;;;;;;;;5021058;28;20227;-76
2022/11/25 14:39:45;;;;;;;14.97;3.70;;;;;;;;;;5007611;28;21174;-77
2022/11/25 14:42:12;;;;;;;14.97;3.30;;;;;;;;;;5019321;28;20526;-77
2022/11/25 14:44:46;;;;;;;17.17;4.13;;;;;;;;;;5023879;28;20462;-76
2022/11/25 14:47:11;;;;;;;11.80;3.53;;;;;;;;;;5017047;28;20490;-77
2022/11/25 14:49:47;;;;;;;16.87;4.27;;;;;;;;;;5023971;28;20580;-77
2022/11/25 14:52:18;;;;;;;11.23;3.07;;;;;;;;;;5002102;28;20177;-77
2022/11/25 14:54:44;;;;;;;9.83;3.77;;;;;;;;;;5023805;28;20435;-77